sensor_id;sensor_type;location;lat;lon;timestamp;pressure;altitude;pressure_sealevel;temperature;humidity
17450;BME280;8842;51.244;7.102;2022-11-04T00:00:36;98035.98;;;10.96;100.00
17450;BME280;8842;51.244;7.102;2022-11-04T00:10:56;98050.11;;;10.79;100.00
17450;BME280;8842;51.244;7.102;2022-11-04T00:21:31;98055.06;;;10.74;100.00
17450;BME280;8842;51.244;7.102;2022-11-04T00:32:05;98075.73;;;10.49;100.00
17450;BME280;8842;51.244;7.102;2022-11-04T00:37:28;98084.52;;;10.49;100.00
17450;BME280;8842;51.244;7.102;2022-11-04T00:47:44;98092.05;;;10.40;100.00
17450;BME280;8842;51.244;7.102;2022-11-04T00:58:00;98105.72;;;10.45;100.00
17450;BME280;8842;51.244;7.102;2022-11-04T01:03:04;98101.59;;;10.47;100.00
17450;BME280;8842;51.244;7.102;2022-11-04T01:13:20;98127.34;;;10.50;100.00
17450;BME280;8842;51.244;7.102;2022-11-04T01:23:39;98149.70;;;10.48;100.00
17450;BME280;8842;51.244;7.102;2022-11-04T01:33:56;98160.45;;;10.60;100.00
17450;BME280;8842;51.244;7.102;2022-11-04T01:55:21;98161.56;;;10.53;100.00
17450;BME280;8842;51.244;7.102;2022-11-04T02:05:41;98177.63;;;10.52;100.00
17450;BME280;8842;51.244;7.102;2022-11-04T02:16:05;98173.80;;;10.50;100.00
17450;BME280;8842;51.244;7.102;2022-11-04T02:27:02;98177.49;;;10.40;100.00
17450;BME280;8842;51.244;7.102;2022-11-04T02:37:30;98170.45;;;10.48;100.00
17450;BME280;8842;51.244;7.102;2022-11-04T02:47:47;98161.64;;;10.48;100.00
17450;BME280;8842;51.244;7.102;2022-11-04T03:03:31;98168.42;;;10.33;100.00
17450;BME280;8842;51.244;7.102;2022-11-04T03:13:55;98173.50;;;10.13;100.00
17450;BME280;8842;51.244;7.102;2022-11-04T03:24:13;98173.93;;;9.85;100.00
17450;BME280;8842;51.244;7.102;2022-11-04T03:34:37;98177.41;;;9.62;100.00
17450;BME280;8842;51.244;7.102;2022-11-04T03:39:41;98183.28;;;9.47;100.00
17450;BME280;8842;51.244;7.102;2022-11-04T04:05:47;98186.61;;;8.97;100.00
17450;BME280;8842;51.244;7.102;2022-11-04T04:16:09;98188.21;;;8.94;100.00
17450;BME280;8842;51.244;7.102;2022-11-04T04:26:33;98191.69;;;8.85;100.00
17450;BME280;8842;51.244;7.102;2022-11-04T04:37:12;98184.58;;;8.95;100.00
17450;BME280;8842;51.244;7.102;2022-11-04T04:47:38;98196.34;;;8.87;100.00
17450;BME280;8842;51.244;7.102;2022-11-04T04:57:54;98208.12;;;8.79;100.00
17450;BME280;8842;51.244;7.102;2022-11-04T05:08:11;98203.66;;;8.89;100.00
17450;BME280;8842;51.244;7.102;2022-11-04T05:18:27;98221.80;;;9.03;100.00
17450;BME280;8842;51.244;7.102;2022-11-04T05:28:43;98222.98;;;9.14;100.00
17450;BME280;8842;51.244;7.102;2022-11-04T05:39:02;98229.05;;;9.01;100.00
17450;BME280;8842;51.244;7.102;2022-11-04T05:49:20;98242.36;;;8.96;100.00
17450;BME280;8842;51.244;7.102;2022-11-04T05:59:38;98244.93;;;9.01;100.00
17450;BME280;8842;51.244;7.102;2022-11-04T06:09:57;98250.57;;;8.93;100.00
17450;BME280;8842;51.244;7.102;2022-11-04T06:20:18;98254.47;;;8.98;100.00
17450;BME280;8842;51.244;7.102;2022-11-04T06:25:22;98256.81;;;8.92;100.00
17450;BME280;8842;51.244;7.102;2022-11-04T06:35:40;98270.02;;;8.97;100.00
17450;BME280;8842;51.244;7.102;2022-11-04T06:40:45;98290.42;;;8.91;100.00
17450;BME280;8842;51.244;7.102;2022-11-04T06:51:06;98296.91;;;9.02;100.00
17450;BME280;8842;51.244;7.102;2022-11-04T07:01:24;98304.31;;;9.08;100.00
17450;BME280;8842;51.244;7.102;2022-11-04T07:06:28;98308.04;;;8.96;100.00
17450;BME280;8842;51.244;7.102;2022-11-04T07:16:48;98322.03;;;9.17;100.00
17450;BME280;8842;51.244;7.102;2022-11-04T07:27:05;98333.41;;;9.23;100.00
17450;BME280;8842;51.244;7.102;2022-11-04T07:37:24;98352.35;;;9.09;100.00
17450;BME280;8842;51.244;7.102;2022-11-04T07:42:28;98363.55;;;9.07;100.00
17450;BME280;8842;51.244;7.102;2022-11-04T07:52:43;98370.05;;;9.18;100.00
17450;BME280;8842;51.244;7.102;2022-11-04T08:03:02;98396.78;;;9.30;100.00
17450;BME280;8842;51.244;7.102;2022-11-04T08:13:21;98381.50;;;9.43;100.00
17450;BME280;8842;51.244;7.102;2022-11-04T08:23:39;98398.78;;;9.47;100.00
17450;BME280;8842;51.244;7.102;2022-11-04T08:33:55;98405.14;;;9.50;100.00
17450;BME280;8842;51.244;7.102;2022-11-04T08:44:12;98416.02;;;9.47;100.00
17450;BME280;8842;51.244;7.102;2022-11-04T08:54:30;98402.08;;;9.55;100.00
17450;BME280;8842;51.244;7.102;2022-11-04T09:04:46;98414.46;;;9.79;100.00
17450;BME280;8842;51.244;7.102;2022-11-04T09:09:50;98410.52;;;9.73;100.00
17450;BME280;8842;51.244;7.102;2022-11-04T09:20:09;98420.86;;;9.95;100.00
17450;BME280;8842;51.244;7.102;2022-11-04T09:30:27;98411.69;;;10.19;100.00
17450;BME280;8842;51.244;7.102;2022-11-04T09:40:45;98424.03;;;10.43;100.00
17450;BME280;8842;51.244;7.102;2022-11-04T09:45:51;98431.00;;;10.44;100.00
17450;BME280;8842;51.244;7.102;2022-11-04T09:56:14;98424.17;;;10.74;100.00
17450;BME280;8842;51.244;7.102;2022-11-04T10:06:43;98414.85;;;10.97;100.00
17450;BME280;8842;51.244;7.102;2022-11-04T10:17:06;98440.23;;;11.18;100.00
17450;BME280;8842;51.244;7.102;2022-11-04T10:27:30;98420.41;;;11.67;100.00
17450;BME280;8842;51.244;7.102;2022-11-04T10:37:51;98432.14;;;11.78;100.00
17450;BME280;8842;51.244;7.102;2022-11-04T10:53:34;98445.37;;;12.01;100.00
17450;BME280;8842;51.244;7.102;2022-11-04T11:03:53;98448.81;;;12.15;100.00
17450;BME280;8842;51.244;7.102;2022-11-04T11:14:19;98469.37;;;11.91;100.00
17450;BME280;8842;51.244;7.102;2022-11-04T11:19:25;98478.75;;;11.95;100.00
17450;BME280;8842;51.244;7.102;2022-11-04T11:24:29;98489.03;;;11.81;100.00
17450;BME280;8842;51.244;7.102;2022-11-04T11:34:46;98498.16;;;11.78;100.00
17450;BME280;8842;51.244;7.102;2022-11-04T11:39:51;98495.80;;;11.89;100.00
17450;BME280;8842;51.244;7.102;2022-11-04T11:55:33;98498.48;;;12.24;100.00
17450;BME280;8842;51.244;7.102;2022-11-04T12:05:55;98515.33;;;12.29;100.00
17450;BME280;8842;51.244;7.102;2022-11-04T12:16:23;98508.38;;;12.32;100.00
17450;BME280;8842;51.244;7.102;2022-11-04T12:21:28;98511.85;;;12.28;100.00
17450;BME280;8842;51.244;7.102;2022-11-04T12:31:56;98507.67;;;12.43;100.00
17450;BME280;8842;51.244;7.102;2022-11-04T12:47:44;98521.50;;;12.47;100.00
17450;BME280;8842;51.244;7.102;2022-11-04T12:58:25;98515.19;;;12.65;100.00
17450;BME280;8842;51.244;7.102;2022-11-04T13:14:06;98522.59;;;12.75;100.00
17450;BME280;8842;51.244;7.102;2022-11-04T13:24:29;98527.74;;;12.73;100.00
17450;BME280;8842;51.244;7.102;2022-11-04T13:34:49;98538.09;;;12.76;100.00
17450;BME280;8842;51.244;7.102;2022-11-04T13:45:12;98546.96;;;12.80;100.00
17450;BME280;8842;51.244;7.102;2022-11-04T13:55:48;98558.05;;;12.58;100.00
17450;BME280;8842;51.244;7.102;2022-11-04T14:06:49;98593.86;;;12.42;100.00
17450;BME280;8842;51.244;7.102;2022-11-04T14:12:25;98599.94;;;12.21;100.00
17450;BME280;8842;51.244;7.102;2022-11-04T14:23:19;98606.07;;;12.31;100.00
17450;BME280;8842;51.244;7.102;2022-11-04T14:39:05;98615.09;;;12.34;100.00
17450;BME280;8842;51.244;7.102;2022-11-04T14:49:41;98630.40;;;12.36;100.00
17450;BME280;8842;51.244;7.102;2022-11-04T14:59:59;98649.00;;;12.32;100.00
17450;BME280;8842;51.244;7.102;2022-11-04T15:05:03;98662.16;;;12.20;100.00
17450;BME280;8842;51.244;7.102;2022-11-04T15:15:34;98684.25;;;12.03;100.00
17450;BME280;8842;51.244;7.102;2022-11-04T15:25:57;98695.01;;;11.88;100.00
17450;BME280;8842;51.244;7.102;2022-11-04T15:36:27;98711.41;;;11.74;100.00
17450;BME280;8842;51.244;7.102;2022-11-04T15:46:50;98730.20;;;11.63;100.00
17450;BME280;8842;51.244;7.102;2022-11-04T16:02:25;98750.82;;;11.46;100.00
17450;BME280;8842;51.244;7.102;2022-11-04T16:12:52;98766.22;;;11.33;100.00
17450;BME280;8842;51.244;7.102;2022-11-04T16:23:15;98771.02;;;11.05;100.00
17450;BME280;8842;51.244;7.102;2022-11-04T16:33:35;98773.03;;;10.73;100.00
17450;BME280;8842;51.244;7.102;2022-11-04T16:38:39;98782.78;;;10.63;100.00
17450;BME280;8842;51.244;7.102;2022-11-04T16:48:56;98795.14;;;10.43;100.00
17450;BME280;8842;51.244;7.102;2022-11-04T16:59:11;98799.70;;;10.32;100.00
17450;BME280;8842;51.244;7.102;2022-11-04T17:04:15;98805.72;;;10.19;100.00
17450;BME280;8842;51.244;7.102;2022-11-04T17:09:21;98816.73;;;10.29;100.00
17450;BME280;8842;51.244;7.102;2022-11-04T17:19:45;98813.69;;;10.34;100.00
17450;BME280;8842;51.244;7.102;2022-11-04T17:30:10;98835.10;;;10.27;100.00
17450;BME280;8842;51.244;7.102;2022-11-04T17:40:26;98854.47;;;10.12;100.00
17450;BME280;8842;51.244;7.102;2022-11-04T17:50:46;98876.77;;;10.15;100.00
17450;BME280;8842;51.244;7.102;2022-11-04T18:01:06;98882.75;;;10.23;100.00
17450;BME280;8842;51.244;7.102;2022-11-04T18:11:22;98896.02;;;10.23;100.00
17450;BME280;8842;51.244;7.102;2022-11-04T18:21:58;98906.46;;;10.15;100.00
17450;BME280;8842;51.244;7.102;2022-11-04T18:32:17;98907.45;;;10.08;100.00
17450;BME280;8842;51.244;7.102;2022-11-04T18:37:21;98913.61;;;9.97;100.00
17450;BME280;8842;51.244;7.102;2022-11-04T18:47:39;98916.39;;;9.96;100.00
17450;BME280;8842;51.244;7.102;2022-11-04T18:57:57;98929.11;;;9.81;100.00
17450;BME280;8842;51.244;7.102;2022-11-04T19:08:14;98937.06;;;9.81;100.00
17450;BME280;8842;51.244;7.102;2022-11-04T19:18:33;98950.59;;;9.67;100.00
17450;BME280;8842;51.244;7.102;2022-11-04T19:28:50;98959.14;;;9.82;100.00
17450;BME280;8842;51.244;7.102;2022-11-04T19:39:11;98980.73;;;9.77;100.00
17450;BME280;8842;51.244;7.102;2022-11-04T19:49:34;98978.33;;;9.74;100.00
17450;BME280;8842;51.244;7.102;2022-11-04T19:59:56;98994.61;;;9.70;100.00
17450;BME280;8842;51.244;7.102;2022-11-04T20:05:01;99003.77;;;9.60;100.00
17450;BME280;8842;51.244;7.102;2022-11-04T20:15:18;99009.44;;;9.67;100.00
17450;BME280;8842;51.244;7.102;2022-11-04T20:25:35;99018.33;;;9.66;100.00
17450;BME280;8842;51.244;7.102;2022-11-04T20:35:54;99035.83;;;9.57;100.00
17450;BME280;8842;51.244;7.102;2022-11-04T20:41:02;99045.70;;;9.55;100.00
17450;BME280;8842;51.244;7.102;2022-11-04T20:51:22;99060.90;;;9.53;100.00
17450;BME280;8842;51.244;7.102;2022-11-04T21:01:42;99088.36;;;9.47;100.00
17450;BME280;8842;51.244;7.102;2022-11-04T21:06:48;99098.49;;;9.47;100.00
17450;BME280;8842;51.244;7.102;2022-11-04T21:17:26;99122.22;;;9.60;100.00
17450;BME280;8842;51.244;7.102;2022-11-04T21:22:37;99122.96;;;9.56;100.00
17450;BME280;8842;51.244;7.102;2022-11-04T21:27:41;99131.02;;;9.60;100.00
17450;BME280;8842;51.244;7.102;2022-11-04T21:38:00;99138.86;;;9.62;100.00
17450;BME280;8842;51.244;7.102;2022-11-04T21:48:18;99156.56;;;9.61;100.00
17450;BME280;8842;51.244;7.102;2022-11-04T21:58:37;99165.25;;;9.63;100.00
17450;BME280;8842;51.244;7.102;2022-11-04T22:03:42;99174.66;;;9.62;100.00
17450;BME280;8842;51.244;7.102;2022-11-04T22:08:48;99174.27;;;9.55;100.00
17450;BME280;8842;51.244;7.102;2022-11-04T22:13:55;99185.97;;;9.58;100.00
17450;BME280;8842;51.244;7.102;2022-11-04T22:19:02;99180.42;;;9.61;100.00
17450;BME280;8842;51.244;7.102;2022-11-04T22:29:22;99188.05;;;9.71;100.00
17450;BME280;8842;51.244;7.102;2022-11-04T22:39:40;99197.31;;;9.55;100.00
17450;BME280;8842;51.244;7.102;2022-11-04T22:44:45;99196.06;;;9.42;100.00
17450;BME280;8842;51.244;7.102;2022-11-04T22:49:49;99204.64;;;9.46;100.00
17450;BME280;8842;51.244;7.102;2022-11-04T23:00:08;99202.38;;;9.52;100.00
17450;BME280;8842;51.244;7.102;2022-11-04T23:10:28;99208.96;;;9.41;100.00
17450;BME280;8842;51.244;7.102;2022-11-04T23:21:06;99209.48;;;9.17;100.00
17450;BME280;8842;51.244;7.102;2022-11-04T23:31:48;99224.63;;;9.10;100.00
17450;BME280;8842;51.244;7.102;2022-11-04T23:36:53;99234.78;;;8.92;100.00
17450;BME280;8842;51.244;7.102;2022-11-04T23:47:27;99240.73;;;8.78;100.00
17450;BME280;8842;51.244;7.102;2022-11-04T23:58:06;99244.52;;;8.68;100.00
